EJU798L LFRN-LFMN
Flight info
| Callsign | EJU798L |
|---|---|
| Flight time | 1h 11m |
| Altitude | 33000 |
| Route | GODAN UN862 TERPO UM616 TUPAR/N0422F350 DCT DIDRU DCT BEBIX/N0417F340 DCT VALKU/N0418F350 DCT LERGA DCT LIQID DCT LATAM DCT TUNUR DCT NISAR |
| Aircraft | A320/M-SDE2E3FGHIJ1RWXYZ/LB1 |
Departure
| Time | 2026-04-22 19:20 |
|---|---|
| Airport | Rennes-Saint-Jacques Airport (LFRN) |
Arrival
| Time | 2026-04-22 20:32 |
|---|---|
| Airport | Nice-Côte d'Azur Airport (LFMN) |
| Time | Latitude | Longitude | Altitude | Speed | Heading |
|---|---|---|---|---|---|
| 2026-04-22 18:56 | 48.06880 | -1.72490 | 133 ft | 0 kts | 225° |
| 2026-04-22 19:12 | 48.06881 | -1.72495 | 106 ft | 1 kts | 257° |
| 2026-04-22 19:13 | 48.06894 | -1.72497 | 133 ft | 4 kts | 2° |
| 2026-04-22 19:13 | 48.06921 | -1.72488 | 141 ft | 4 kts | 12° |
| 2026-04-22 19:13 | 48.06944 | -1.72497 | 133 ft | 4 kts | 315° |
| 2026-04-22 19:13 | 48.06957 | -1.72563 | 133 ft | 10 kts | 281° |
| 2026-04-22 19:14 | 48.06973 | -1.72683 | 133 ft | 14 kts | 281° |
| 2026-04-22 19:14 | 48.06992 | -1.72833 | 133 ft | 16 kts | 281° |
| 2026-04-22 19:14 | 48.07011 | -1.72989 | 133 ft | 15 kts | 281° |
| 2026-04-22 19:14 | 48.07029 | -1.73134 | 133 ft | 14 kts | 281° |
| 2026-04-22 19:15 | 48.07041 | -1.73229 | 132 ft | 14 kts | 281° |
| 2026-04-22 19:15 | 48.07064 | -1.73405 | 128 ft | 11 kts | 281° |
| 2026-04-22 19:15 | 48.07095 | -1.73505 | 126 ft | 12 kts | 320° |
| 2026-04-22 19:15 | 48.07167 | -1.73574 | 119 ft | 13 kts | 334° |
| 2026-04-22 19:16 | 48.07237 | -1.73629 | 118 ft | 11 kts | 315° |
| 2026-04-22 19:16 | 48.07260 | -1.73753 | 115 ft | 14 kts | 281° |
| 2026-04-22 19:16 | 48.07277 | -1.73892 | 111 ft | 13 kts | 281° |
| 2026-04-22 19:16 | 48.07295 | -1.74034 | 106 ft | 13 kts | 281° |
| 2026-04-22 19:17 | 48.07311 | -1.74157 | 103 ft | 12 kts | 281° |
| 2026-04-22 19:17 | 48.07322 | -1.74246 | 102 ft | 8 kts | 281° |
| 2026-04-22 19:17 | 48.07332 | -1.74325 | 100 ft | 9 kts | 281° |
| 2026-04-22 19:17 | 48.07326 | -1.74432 | 95 ft | 13 kts | 250° |
| 2026-04-22 19:18 | 48.07301 | -1.74534 | 91 ft | 6 kts | 250° |
| 2026-04-22 19:18 | 48.07307 | -1.74588 | 89 ft | 7 kts | 312° |
| 2026-04-22 19:18 | 48.07345 | -1.74598 | 87 ft | 3 kts | 13° |
| 2026-04-22 19:18 | 48.07361 | -1.74579 | 90 ft | 3 kts | 56° |
| 2026-04-22 19:19 | 48.07360 | -1.74546 | 91 ft | 2 kts | 102° |
| 2026-04-22 19:19 | 48.07360 | -1.74543 | 91 ft | 0 kts | 102° |
| 2026-04-22 19:20 | 48.07358 | -1.74532 | 91 ft | 11 kts | 102° |
| 2026-04-22 19:20 | 48.07293 | -1.74014 | 107 ft | 88 kts | 101° |
| 2026-04-22 19:20 | 48.07144 | -1.72808 | 137 ft | 146 kts | 99° |
| 2026-04-22 19:20 | 48.06961 | -1.71326 | 875 ft | 140 kts | 98° |
| 2026-04-22 19:21 | 48.06782 | -1.69879 | 1651 ft | 143 kts | 99° |
| 2026-04-22 19:21 | 48.06601 | -1.68434 | 2393 ft | 139 kts | 100° |
| 2026-04-22 19:21 | 48.06421 | -1.67023 | 3057 ft | 137 kts | 103° |
| 2026-04-22 19:21 | 48.06069 | -1.65678 | 3593 ft | 146 kts | 118° |
| 2026-04-22 19:22 | 48.05351 | -1.64434 | 3883 ft | 171 kts | 139° |
| 2026-04-22 19:22 | 48.04249 | -1.63605 | 4373 ft | 185 kts | 161° |
| 2026-04-22 19:22 | 48.02934 | -1.63415 | 4932 ft | 194 kts | 175° |
| 2026-04-22 19:22 | 48.01570 | -1.63353 | 5511 ft | 197 kts | 175° |
| 2026-04-22 19:23 | 48.00189 | -1.63287 | 6086 ft | 200 kts | 176° |
| 2026-04-22 19:23 | 47.98785 | -1.63220 | 6646 ft | 204 kts | 177° |
| 2026-04-22 19:23 | 47.97354 | -1.63141 | 7184 ft | 207 kts | 176° |
| 2026-04-22 19:23 | 47.95899 | -1.63033 | 7682 ft | 215 kts | 176° |
| 2026-04-22 19:24 | 47.94325 | -1.62905 | 7909 ft | 239 kts | 176° |
| 2026-04-22 19:24 | 47.92636 | -1.62761 | 8583 ft | 244 kts | 176° |
| 2026-04-22 19:24 | 47.91508 | -1.62658 | 9117 ft | 246 kts | 176° |
| 2026-04-22 19:24 | 47.89795 | -1.62385 | 9893 ft | 250 kts | 164° |
| 2026-04-22 19:25 | 47.88170 | -1.61416 | 10592 ft | 254 kts | 155° |
| 2026-04-22 19:25 | 47.86550 | -1.60329 | 11318 ft | 257 kts | 155° |
| 2026-04-22 19:25 | 47.84890 | -1.59206 | 11850 ft | 272 kts | 155° |
| 2026-04-22 19:25 | 47.83093 | -1.57988 | 12131 ft | 295 kts | 155° |
| 2026-04-22 19:26 | 47.81148 | -1.56669 | 12392 ft | 319 kts | 155° |
| 2026-04-22 19:26 | 47.79054 | -1.55250 | 12615 ft | 342 kts | 155° |
| 2026-04-22 19:26 | 47.76818 | -1.53740 | 12849 ft | 363 kts | 155° |
| 2026-04-22 19:26 | 47.74488 | -1.52175 | 13411 ft | 371 kts | 155° |
| 2026-04-22 19:27 | 47.72115 | -1.50582 | 14100 ft | 378 kts | 155° |
| 2026-04-22 19:27 | 47.69720 | -1.48966 | 14744 ft | 379 kts | 155° |
| 2026-04-22 19:27 | 47.67303 | -1.47345 | 15344 ft | 383 kts | 155° |
| 2026-04-22 19:27 | 47.64864 | -1.45719 | 15962 ft | 387 kts | 156° |
| 2026-04-22 19:28 | 47.62398 | -1.44089 | 16580 ft | 390 kts | 156° |
| 2026-04-22 19:28 | 47.59911 | -1.42440 | 17195 ft | 393 kts | 156° |
| 2026-04-22 19:28 | 47.57395 | -1.40765 | 17651 ft | 402 kts | 156° |
| 2026-04-22 19:28 | 47.54795 | -1.39036 | 17783 ft | 418 kts | 156° |
| 2026-04-22 19:29 | 47.52101 | -1.37245 | 17939 ft | 431 kts | 156° |
| 2026-04-22 19:29 | 47.49344 | -1.35411 | 18318 ft | 437 kts | 156° |
| 2026-04-22 19:29 | 47.46559 | -1.33558 | 18749 ft | 441 kts | 157° |
| 2026-04-22 19:29 | 47.43758 | -1.31696 | 19162 ft | 443 kts | 157° |
| 2026-04-22 19:30 | 47.41845 | -1.30430 | 19439 ft | 448 kts | 157° |
| 2026-04-22 19:30 | 47.38073 | -1.27934 | 20050 ft | 450 kts | 157° |
| 2026-04-22 19:30 | 47.35203 | -1.26047 | 20481 ft | 454 kts | 157° |
| 2026-04-22 19:30 | 47.32311 | -1.24151 | 20920 ft | 456 kts | 157° |
| 2026-04-22 19:31 | 47.29412 | -1.22248 | 21360 ft | 456 kts | 157° |
| 2026-04-22 19:31 | 47.26551 | -1.20365 | 22306 ft | 446 kts | 157° |
| 2026-04-22 19:31 | 47.23732 | -1.18507 | 22945 ft | 444 kts | 157° |
| 2026-04-22 19:31 | 47.20901 | -1.16645 | 23438 ft | 446 kts | 158° |
| 2026-04-22 19:32 | 47.18062 | -1.14786 | 23830 ft | 449 kts | 158° |
| 2026-04-22 19:32 | 47.15200 | -1.12915 | 24177 ft | 452 kts | 158° |
| 2026-04-22 19:32 | 47.12322 | -1.11033 | 24547 ft | 454 kts | 158° |
| 2026-04-22 19:32 | 47.09430 | -1.09139 | 24893 ft | 456 kts | 158° |
| 2026-04-22 19:33 | 47.06525 | -1.07240 | 25236 ft | 459 kts | 158° |
| 2026-04-22 19:33 | 47.03599 | -1.05333 | 25580 ft | 461 kts | 158° |
| 2026-04-22 19:33 | 47.00658 | -1.03422 | 25910 ft | 463 kts | 158° |
| 2026-04-22 19:33 | 46.97702 | -1.01505 | 26234 ft | 466 kts | 158° |
| 2026-04-22 19:34 | 46.94732 | -0.99577 | 26533 ft | 468 kts | 158° |
| 2026-04-22 19:34 | 46.91748 | -0.97639 | 26841 ft | 471 kts | 158° |
| 2026-04-22 19:34 | 46.88742 | -0.95688 | 27139 ft | 473 kts | 158° |
| 2026-04-22 19:34 | 46.85725 | -0.93735 | 27438 ft | 475 kts | 158° |
| 2026-04-22 19:35 | 46.82695 | -0.91779 | 27731 ft | 478 kts | 158° |
| 2026-04-22 19:35 | 46.79643 | -0.89811 | 28020 ft | 480 kts | 159° |
| 2026-04-22 19:35 | 46.76579 | -0.87839 | 28304 ft | 482 kts | 159° |
| 2026-04-22 19:35 | 46.73505 | -0.85865 | 28584 ft | 485 kts | 159° |
| 2026-04-22 19:36 | 46.70416 | -0.83880 | 28912 ft | 485 kts | 159° |
| 2026-04-22 19:36 | 46.67329 | -0.81892 | 29312 ft | 485 kts | 159° |
| 2026-04-22 19:36 | 46.64247 | -0.79908 | 29697 ft | 484 kts | 159° |
| 2026-04-22 19:36 | 46.61165 | -0.77927 | 30085 ft | 484 kts | 159° |
| 2026-04-22 19:37 | 46.58085 | -0.75958 | 30411 ft | 484 kts | 159° |
| 2026-04-22 19:37 | 46.55006 | -0.73994 | 30723 ft | 484 kts | 159° |
| 2026-04-22 19:37 | 46.51913 | -0.72033 | 30999 ft | 485 kts | 159° |
| 2026-04-22 19:38 | 46.46046 | -0.67218 | 31072 ft | 490 kts | 142° |
| 2026-04-22 19:38 | 46.43659 | -0.63682 | 31070 ft | 494 kts | 128° |
| 2026-04-22 19:38 | 46.41833 | -0.59456 | 31067 ft | 495 kts | 120° |
| 2026-04-22 19:39 | 46.38509 | -0.50704 | 31149 ft | 496 kts | 119° |
| 2026-04-22 19:39 | 46.36869 | -0.46304 | 31486 ft | 496 kts | 119° |
| 2026-04-22 19:39 | 46.35234 | -0.41901 | 31794 ft | 496 kts | 119° |
| 2026-04-22 19:39 | 46.33595 | -0.37504 | 32099 ft | 496 kts | 119° |
| 2026-04-22 19:40 | 46.31948 | -0.33117 | 32411 ft | 496 kts | 119° |
| 2026-04-22 19:40 | 46.30294 | -0.28731 | 32721 ft | 497 kts | 119° |
| 2026-04-22 19:40 | 46.28631 | -0.24342 | 33005 ft | 498 kts | 119° |
| 2026-04-22 19:41 | 46.25298 | -0.15581 | 33068 ft | 497 kts | 119° |
| 2026-04-22 19:41 | 46.21966 | -0.06834 | 33074 ft | 497 kts | 119° |
| 2026-04-22 19:42 | 46.18631 | 0.01912 | 33069 ft | 497 kts | 118° |
| 2026-04-22 19:42 | 46.15778 | 0.10996 | 33069 ft | 498 kts | 114° |
| 2026-04-22 19:43 | 46.11601 | 0.24705 | 33070 ft | 498 kts | 114° |
| 2026-04-22 19:43 | 46.08807 | 0.33825 | 33066 ft | 498 kts | 114° |
| 2026-04-22 19:44 | 46.06025 | 0.42882 | 33055 ft | 498 kts | 114° |
| 2026-04-22 19:44 | 46.03195 | 0.52050 | 33057 ft | 498 kts | 114° |
| 2026-04-22 19:45 | 46.00382 | 0.61144 | 33062 ft | 497 kts | 114° |
| 2026-04-22 19:45 | 45.97560 | 0.70235 | 33062 ft | 498 kts | 114° |
| 2026-04-22 19:46 | 45.94730 | 0.79320 | 33064 ft | 498 kts | 114° |
| 2026-04-22 19:46 | 45.91889 | 0.88373 | 33055 ft | 496 kts | 114° |
| 2026-04-22 19:47 | 45.89051 | 0.97408 | 33058 ft | 498 kts | 114° |
| 2026-04-22 19:47 | 45.86193 | 1.06467 | 33061 ft | 498 kts | 114° |
| 2026-04-22 19:48 | 45.83331 | 1.15525 | 33068 ft | 499 kts | 114° |
| 2026-04-22 19:48 | 45.80478 | 1.24504 | 33066 ft | 498 kts | 114° |
| 2026-04-22 19:49 | 45.77596 | 1.33540 | 33067 ft | 499 kts | 114° |
| 2026-04-22 19:49 | 45.74696 | 1.42631 | 33073 ft | 499 kts | 114° |
| 2026-04-22 19:50 | 45.71821 | 1.51606 | 33080 ft | 499 kts | 114° |
| 2026-04-22 19:50 | 45.68918 | 1.60637 | 33090 ft | 500 kts | 114° |
| 2026-04-22 19:51 | 45.66003 | 1.69662 | 33097 ft | 500 kts | 114° |
| 2026-04-22 19:51 | 45.63079 | 1.78684 | 33106 ft | 500 kts | 114° |
| 2026-04-22 19:52 | 45.60153 | 1.87693 | 33106 ft | 500 kts | 114° |
| 2026-04-22 19:52 | 45.57210 | 1.96697 | 33108 ft | 500 kts | 114° |
| 2026-04-22 19:53 | 45.54261 | 2.05683 | 33113 ft | 500 kts | 114° |
| 2026-04-22 19:53 | 45.51307 | 2.14661 | 33116 ft | 500 kts | 114° |
| 2026-04-22 19:54 | 45.48351 | 2.23629 | 33117 ft | 500 kts | 114° |
| 2026-04-22 19:54 | 45.45387 | 2.32596 | 33118 ft | 500 kts | 114° |
| 2026-04-22 19:55 | 45.42414 | 2.41555 | 33120 ft | 501 kts | 114° |
| 2026-04-22 19:55 | 45.39434 | 2.50512 | 33125 ft | 501 kts | 114° |
| 2026-04-22 19:56 | 45.36445 | 2.59464 | 33127 ft | 501 kts | 114° |
| 2026-04-22 19:56 | 45.33441 | 2.68414 | 33130 ft | 502 kts | 114° |
| 2026-04-22 19:57 | 45.30421 | 2.77365 | 33137 ft | 502 kts | 114° |
| 2026-04-22 19:57 | 45.27399 | 2.86312 | 33139 ft | 502 kts | 114° |
| 2026-04-22 19:58 | 45.24369 | 2.95253 | 33146 ft | 503 kts | 114° |
| 2026-04-22 19:58 | 45.21331 | 3.04190 | 33144 ft | 503 kts | 114° |
| 2026-04-22 20:00 | 45.10618 | 3.35457 | 33157 ft | 504 kts | 114° |
| 2026-04-22 20:01 | 45.07542 | 3.44383 | 33145 ft | 505 kts | 114° |
| 2026-04-22 20:01 | 45.04456 | 3.53297 | 33153 ft | 505 kts | 114° |
| 2026-04-22 20:02 | 45.01359 | 3.62207 | 33154 ft | 505 kts | 114° |
| 2026-04-22 20:02 | 44.98247 | 3.71112 | 33158 ft | 506 kts | 114° |
| 2026-04-22 20:03 | 44.95131 | 3.80018 | 33158 ft | 506 kts | 114° |
| 2026-04-22 20:03 | 44.92007 | 3.88920 | 33159 ft | 506 kts | 114° |
| 2026-04-22 20:04 | 44.88873 | 3.97829 | 33161 ft | 507 kts | 114° |
| 2026-04-22 20:04 | 44.85729 | 4.06722 | 33168 ft | 507 kts | 114° |
| 2026-04-22 20:05 | 44.82573 | 4.15614 | 33173 ft | 507 kts | 114° |
| 2026-04-22 20:05 | 44.79952 | 4.23000 | 33173 ft | 508 kts | 114° |
| 2026-04-22 20:06 | 44.76249 | 4.33390 | 33172 ft | 508 kts | 114° |
| 2026-04-22 20:06 | 44.73095 | 4.42211 | 33176 ft | 508 kts | 114° |
| 2026-04-22 20:07 | 44.69912 | 4.51070 | 33174 ft | 508 kts | 114° |
| 2026-04-22 20:07 | 44.66722 | 4.59924 | 33178 ft | 508 kts | 114° |
| 2026-04-22 20:08 | 44.64039 | 4.67343 | 33178 ft | 508 kts | 114° |
| 2026-04-22 20:08 | 44.60839 | 4.76184 | 33175 ft | 508 kts | 114° |
| 2026-04-22 20:09 | 44.57628 | 4.85021 | 33175 ft | 508 kts | 114° |
| 2026-04-22 20:09 | 44.54407 | 4.93840 | 33177 ft | 508 kts | 114° |
| 2026-04-22 20:10 | 44.51181 | 5.02656 | 33178 ft | 508 kts | 114° |
| 2026-04-22 20:10 | 44.47209 | 5.10843 | 33167 ft | 511 kts | 130° |
| 2026-04-22 20:11 | 44.42479 | 5.18301 | 33171 ft | 512 kts | 130° |
| 2026-04-22 20:11 | 44.37760 | 5.25665 | 33168 ft | 512 kts | 135° |
| 2026-04-22 20:12 | 44.32226 | 5.32079 | 32279 ft | 519 kts | 142° |
| 2026-04-22 20:12 | 44.29345 | 5.35213 | 31070 ft | 528 kts | 143° |
| 2026-04-22 20:12 | 44.26452 | 5.38353 | 30244 ft | 526 kts | 143° |
| 2026-04-22 20:12 | 44.23607 | 5.41443 | 29280 ft | 525 kts | 143° |
| 2026-04-22 20:13 | 44.20749 | 5.44548 | 28745 ft | 518 kts | 143° |
| 2026-04-22 20:13 | 44.17912 | 5.47624 | 28154 ft | 515 kts | 143° |
| 2026-04-22 20:13 | 44.15083 | 5.50688 | 27581 ft | 515 kts | 143° |
| 2026-04-22 20:13 | 44.12253 | 5.53752 | 27004 ft | 516 kts | 143° |
| 2026-04-22 20:14 | 44.09433 | 5.56804 | 26422 ft | 513 kts | 143° |
| 2026-04-22 20:14 | 44.06631 | 5.59837 | 25855 ft | 508 kts | 143° |
| 2026-04-22 20:14 | 44.03848 | 5.62841 | 25290 ft | 504 kts | 143° |
| 2026-04-22 20:14 | 44.01089 | 5.65818 | 24723 ft | 500 kts | 143° |
| 2026-04-22 20:15 | 43.98355 | 5.68766 | 24164 ft | 496 kts | 143° |
| 2026-04-22 20:15 | 43.95641 | 5.71692 | 23583 ft | 491 kts | 143° |
| 2026-04-22 20:15 | 43.92954 | 5.74583 | 23009 ft | 487 kts | 143° |
| 2026-04-22 20:15 | 43.90285 | 5.77448 | 22470 ft | 483 kts | 143° |
| 2026-04-22 20:16 | 43.87636 | 5.80278 | 21931 ft | 479 kts | 143° |
| 2026-04-22 20:16 | 43.85012 | 5.83075 | 21396 ft | 474 kts | 143° |
| 2026-04-22 20:16 | 43.82410 | 5.85847 | 20863 ft | 470 kts | 143° |
| 2026-04-22 20:16 | 43.79829 | 5.88597 | 20333 ft | 466 kts | 143° |
| 2026-04-22 20:17 | 43.77265 | 5.91331 | 19808 ft | 463 kts | 143° |
| 2026-04-22 20:17 | 43.74729 | 5.94037 | 19289 ft | 460 kts | 143° |
| 2026-04-22 20:17 | 43.72205 | 5.96727 | 18770 ft | 456 kts | 143° |
| 2026-04-22 20:17 | 43.69698 | 5.99389 | 18225 ft | 453 kts | 143° |
| 2026-04-22 20:18 | 43.67209 | 6.02024 | 17708 ft | 449 kts | 143° |
| 2026-04-22 20:18 | 43.64740 | 6.04638 | 17208 ft | 445 kts | 143° |
| 2026-04-22 20:18 | 43.62343 | 6.07316 | 16693 ft | 442 kts | 137° |
| 2026-04-22 20:18 | 43.60289 | 6.10444 | 16201 ft | 438 kts | 126° |
| 2026-04-22 20:19 | 43.58645 | 6.13970 | 15309 ft | 440 kts | 116° |
| 2026-04-22 20:19 | 43.57438 | 6.17880 | 14194 ft | 448 kts | 108° |
| 2026-04-22 20:19 | 43.56366 | 6.21915 | 13679 ft | 442 kts | 108° |
| 2026-04-22 20:19 | 43.55311 | 6.25802 | 13537 ft | 423 kts | 108° |
| 2026-04-22 20:20 | 43.54296 | 6.29473 | 13401 ft | 398 kts | 109° |
| 2026-04-22 20:20 | 43.53325 | 6.32941 | 13273 ft | 378 kts | 109° |
| 2026-04-22 20:20 | 43.52401 | 6.36225 | 13146 ft | 357 kts | 108° |
| 2026-04-22 20:20 | 43.51526 | 6.39338 | 12990 ft | 341 kts | 108° |
| 2026-04-22 20:21 | 43.50689 | 6.42337 | 12594 ft | 333 kts | 108° |
| 2026-04-22 20:21 | 43.50080 | 6.45345 | 12142 ft | 320 kts | 94° |
| 2026-04-22 20:21 | 43.49789 | 6.48350 | 11689 ft | 315 kts | 94° |
| 2026-04-22 20:21 | 43.49496 | 6.51301 | 11248 ft | 316 kts | 94° |
| 2026-04-22 20:22 | 43.49194 | 6.54290 | 10810 ft | 314 kts | 94° |
| 2026-04-22 20:22 | 43.48897 | 6.57250 | 10376 ft | 311 kts | 95° |
| 2026-04-22 20:22 | 43.48603 | 6.60184 | 9926 ft | 307 kts | 95° |
| 2026-04-22 20:22 | 43.48319 | 6.63050 | 9451 ft | 298 kts | 95° |
| 2026-04-22 20:23 | 43.48053 | 6.65837 | 8981 ft | 290 kts | 92° |
| 2026-04-22 20:23 | 43.48072 | 6.68580 | 8520 ft | 285 kts | 84° |
| 2026-04-22 20:23 | 43.48215 | 6.71282 | 8135 ft | 282 kts | 83° |
| 2026-04-22 20:23 | 43.48380 | 6.73963 | 7789 ft | 280 kts | 83° |
| 2026-04-22 20:24 | 43.48554 | 6.76612 | 7439 ft | 276 kts | 83° |
| 2026-04-22 20:24 | 43.48738 | 6.79231 | 7088 ft | 273 kts | 83° |
| 2026-04-22 20:24 | 43.48926 | 6.81816 | 6765 ft | 270 kts | 83° |
| 2026-04-22 20:24 | 43.49120 | 6.84369 | 6406 ft | 267 kts | 83° |
| 2026-04-22 20:25 | 43.49318 | 6.86890 | 6041 ft | 262 kts | 83° |
| 2026-04-22 20:25 | 43.49515 | 6.89342 | 5683 ft | 254 kts | 83° |
| 2026-04-22 20:25 | 43.49709 | 6.91721 | 5333 ft | 246 kts | 83° |
| 2026-04-22 20:25 | 43.49902 | 6.94026 | 4976 ft | 239 kts | 83° |
| 2026-04-22 20:26 | 43.50091 | 6.96266 | 4614 ft | 230 kts | 83° |
| 2026-04-22 20:26 | 43.50274 | 6.98402 | 4260 ft | 219 kts | 83° |
| 2026-04-22 20:26 | 43.50448 | 7.00431 | 3951 ft | 208 kts | 83° |
| 2026-04-22 20:26 | 43.50614 | 7.02359 | 3646 ft | 199 kts | 83° |
| 2026-04-22 20:27 | 43.50774 | 7.04218 | 3351 ft | 193 kts | 83° |
| 2026-04-22 20:27 | 43.50927 | 7.06029 | 3047 ft | 188 kts | 83° |
| 2026-04-22 20:27 | 43.51080 | 7.07797 | 2739 ft | 184 kts | 83° |
| 2026-04-22 20:27 | 43.51234 | 7.09532 | 2517 ft | 181 kts | 83° |
| 2026-04-22 20:28 | 43.51385 | 7.11207 | 2463 ft | 169 kts | 82° |
| 2026-04-22 20:28 | 43.51628 | 7.12725 | 2434 ft | 159 kts | 73° |
| 2026-04-22 20:28 | 43.52098 | 7.14071 | 2345 ft | 157 kts | 54° |
| 2026-04-22 20:28 | 43.52913 | 7.15065 | 2213 ft | 158 kts | 34° |
| 2026-04-22 20:29 | 43.53950 | 7.15587 | 2094 ft | 162 kts | 11° |
| 2026-04-22 20:29 | 43.55085 | 7.15583 | 1985 ft | 164 kts | 358° |
| 2026-04-22 20:29 | 43.56225 | 7.15463 | 1977 ft | 164 kts | 359° |
| 2026-04-22 20:29 | 43.57371 | 7.15356 | 1819 ft | 165 kts | 358° |
| 2026-04-22 20:30 | 43.58502 | 7.15246 | 1537 ft | 160 kts | 358° |
| 2026-04-22 20:30 | 43.59594 | 7.15137 | 1286 ft | 153 kts | 358° |
| 2026-04-22 20:30 | 43.60617 | 7.15251 | 1115 ft | 141 kts | 13° |
| 2026-04-22 20:30 | 43.61505 | 7.15737 | 1034 ft | 136 kts | 28° |
| 2026-04-22 20:31 | 43.62281 | 7.16482 | 843 ft | 135 kts | 38° |
| 2026-04-22 20:31 | 43.62967 | 7.17367 | 679 ft | 135 kts | 42° |
| 2026-04-22 20:31 | 43.63629 | 7.18278 | 519 ft | 134 kts | 43° |
| 2026-04-22 20:31 | 43.64290 | 7.19187 | 355 ft | 134 kts | 42° |
| 2026-04-22 20:32 | 43.64954 | 7.20092 | 127 ft | 134 kts | 43° |
| 2026-04-22 20:32 | 43.65593 | 7.20975 | 26 ft | 118 kts | 43° |
| 2026-04-22 20:32 | 43.65986 | 7.21511 | 20 ft | 36 kts | 45° |
| 2026-04-22 20:32 | 43.66122 | 7.21699 | 21 ft | 24 kts | 45° |
| 2026-04-22 20:33 | 43.66219 | 7.21739 | 21 ft | 15 kts | 327° |
| 2026-04-22 20:33 | 43.66298 | 7.21636 | 21 ft | 17 kts | 315° |
| 2026-04-22 20:33 | 43.66368 | 7.21535 | 21 ft | 13 kts | 302° |
| 2026-04-22 20:33 | 43.66351 | 7.21438 | 22 ft | 10 kts | 240° |
| 2026-04-22 20:34 | 43.66308 | 7.21375 | 21 ft | 8 kts | 224° |
| 2026-04-22 20:34 | 43.66269 | 7.21321 | 21 ft | 8 kts | 225° |
| 2026-04-22 20:34 | 43.66234 | 7.21273 | 21 ft | 7 kts | 225° |
| 2026-04-22 20:34 | 43.66196 | 7.21222 | 21 ft | 8 kts | 225° |
| 2026-04-22 20:35 | 43.66149 | 7.21156 | 21 ft | 11 kts | 224° |
| 2026-04-22 20:35 | 43.66085 | 7.21070 | 22 ft | 13 kts | 225° |
| 2026-04-22 20:35 | 43.66025 | 7.20986 | 21 ft | 12 kts | 224° |
| 2026-04-22 20:35 | 43.65972 | 7.20909 | 21 ft | 10 kts | 239° |
| 2026-04-22 20:36 | 43.65986 | 7.20830 | 21 ft | 9 kts | 323° |
| 2026-04-22 20:36 | 43.66029 | 7.20796 | 21 ft | 5 kts | 286° |
| 2026-04-22 20:36 | 43.66036 | 7.20746 | 21 ft | 6 kts | 289° |
| 2026-04-22 20:36 | 43.66046 | 7.20711 | 23 ft | 3 kts | 292° |
| 2026-04-22 20:37 | 43.66046 | 7.20709 | 22 ft | 0 kts | 292° |